sensor_id;sensor_type;location;lat;lon;timestamp;temperature;humidity
7307;DHT22;3694;48.732;9.248;2023-04-06T00:00:30;-1.70;99.90
7307;DHT22;3694;48.732;9.248;2023-04-06T00:02:55;-1.70;99.90
7307;DHT22;3694;48.732;9.248;2023-04-06T00:05:21;-1.60;99.90
7307;DHT22;3694;48.732;9.248;2023-04-06T00:07:48;-1.50;99.90
7307;DHT22;3694;48.732;9.248;2023-04-06T00:10:13;-1.60;99.90
7307;DHT22;3694;48.732;9.248;2023-04-06T00:12:39;-1.50;99.90
7307;DHT22;3694;48.732;9.248;2023-04-06T00:15:05;-1.50;99.90
7307;DHT22;3694;48.732;9.248;2023-04-06T00:17:31;-1.50;99.90
7307;DHT22;3694;48.732;9.248;2023-04-06T00:19:56;-1.50;99.90
7307;DHT22;3694;48.732;9.248;2023-04-06T00:22:22;-1.50;99.90
7307;DHT22;3694;48.732;9.248;2023-04-06T00:24:47;-1.30;99.90
7307;DHT22;3694;48.732;9.248;2023-04-06T00:27:13;-1.10;99.90
7307;DHT22;3694;48.732;9.248;2023-04-06T00:29:39;-1.40;99.70
7307;DHT22;3694;48.732;9.248;2023-04-06T00:32:05;-1.50;99.90
7307;DHT22;3694;48.732;9.248;2023-04-06T00:34:31;-1.60;99.90
7307;DHT22;3694;48.732;9.248;2023-04-06T00:36:56;-1.60;99.90
7307;DHT22;3694;48.732;9.248;2023-04-06T00:39:22;-1.60;99.90
7307;DHT22;3694;48.732;9.248;2023-04-06T00:41:51;-1.70;99.90
7307;DHT22;3694;48.732;9.248;2023-04-06T00:44:17;-1.80;99.90
7307;DHT22;3694;48.732;9.248;2023-04-06T00:46:42;-1.80;99.90
7307;DHT22;3694;48.732;9.248;2023-04-06T00:49:08;-1.80;99.90
7307;DHT22;3694;48.732;9.248;2023-04-06T00:51:34;-1.80;99.90
7307;DHT22;3694;48.732;9.248;2023-04-06T00:53:59;-1.80;99.90
7307;DHT22;3694;48.732;9.248;2023-04-06T00:56:25;-1.80;99.90
7307;DHT22;3694;48.732;9.248;2023-04-06T00:58:51;-1.70;99.90
7307;DHT22;3694;48.732;9.248;2023-04-06T01:01:17;-1.70;99.90
7307;DHT22;3694;48.732;9.248;2023-04-06T01:03:42;-1.60;99.90
7307;DHT22;3694;48.732;9.248;2023-04-06T01:06:09;-1.70;99.90
7307;DHT22;3694;48.732;9.248;2023-04-06T01:08:36;-1.70;99.90
7307;DHT22;3694;48.732;9.248;2023-04-06T01:11:01;-1.80;99.90
7307;DHT22;3694;48.732;9.248;2023-04-06T01:13:27;-1.90;99.90
7307;DHT22;3694;48.732;9.248;2023-04-06T01:15:53;-1.90;99.90
7307;DHT22;3694;48.732;9.248;2023-04-06T01:18:18;-1.80;99.90
7307;DHT22;3694;48.732;9.248;2023-04-06T01:20:50;-1.80;99.90
7307;DHT22;3694;48.732;9.248;2023-04-06T01:23:16;-1.80;99.90
7307;DHT22;3694;48.732;9.248;2023-04-06T01:25:41;-1.80;99.90
7307;DHT22;3694;48.732;9.248;2023-04-06T01:28:07;-1.80;99.90
7307;DHT22;3694;48.732;9.248;2023-04-06T01:30:32;-1.60;99.90
7307;DHT22;3694;48.732;9.248;2023-04-06T01:32:58;-1.80;99.90
7307;DHT22;3694;48.732;9.248;2023-04-06T01:35:27;-1.80;99.90
7307;DHT22;3694;48.732;9.248;2023-04-06T01:37:53;-1.90;99.90
7307;DHT22;3694;48.732;9.248;2023-04-06T01:40:18;-1.90;99.90
7307;DHT22;3694;48.732;9.248;2023-04-06T01:42:44;-1.90;99.90
7307;DHT22;3694;48.732;9.248;2023-04-06T01:45:09;-1.90;99.90
7307;DHT22;3694;48.732;9.248;2023-04-06T01:47:35;-1.90;99.90
7307;DHT22;3694;48.732;9.248;2023-04-06T01:50:01;-1.80;99.90
7307;DHT22;3694;48.732;9.248;2023-04-06T01:52:28;-1.90;99.90
7307;DHT22;3694;48.732;9.248;2023-04-06T01:54:53;-1.70;99.90
7307;DHT22;3694;48.732;9.248;2023-04-06T01:57:19;-1.70;99.90
7307;DHT22;3694;48.732;9.248;2023-04-06T01:59:45;-1.70;99.90
7307;DHT22;3694;48.732;9.248;2023-04-06T02:02:11;-1.70;99.90
7307;DHT22;3694;48.732;9.248;2023-04-06T02:04:38;-1.60;99.90
7307;DHT22;3694;48.732;9.248;2023-04-06T02:07:03;-1.60;99.90
7307;DHT22;3694;48.732;9.248;2023-04-06T02:09:29;-1.70;99.90
7307;DHT22;3694;48.732;9.248;2023-04-06T02:11:55;-1.70;99.90
7307;DHT22;3694;48.732;9.248;2023-04-06T02:14:21;-1.70;99.90
7307;DHT22;3694;48.732;9.248;2023-04-06T02:16:46;-1.70;99.90
7307;DHT22;3694;48.732;9.248;2023-04-06T02:19:12;-1.50;99.90
7307;DHT22;3694;48.732;9.248;2023-04-06T02:21:37;-1.80;99.90
7307;DHT22;3694;48.732;9.248;2023-04-06T02:24:03;-1.80;99.90
7307;DHT22;3694;48.732;9.248;2023-04-06T02:26:28;-1.70;99.90
7307;DHT22;3694;48.732;9.248;2023-04-06T02:28:54;-1.90;99.90
7307;DHT22;3694;48.732;9.248;2023-04-06T02:31:20;-1.90;99.90
7307;DHT22;3694;48.732;9.248;2023-04-06T02:33:45;-1.90;99.90
7307;DHT22;3694;48.732;9.248;2023-04-06T02:36:11;-2.00;99.90
7307;DHT22;3694;48.732;9.248;2023-04-06T02:38:36;-2.00;99.90
7307;DHT22;3694;48.732;9.248;2023-04-06T02:41:02;-2.20;99.90
7307;DHT22;3694;48.732;9.248;2023-04-06T02:43:27;-2.20;99.90
7307;DHT22;3694;48.732;9.248;2023-04-06T02:45:53;-2.20;99.90
7307;DHT22;3694;48.732;9.248;2023-04-06T02:48:18;-2.20;99.90
7307;DHT22;3694;48.732;9.248;2023-04-06T02:50:44;-2.10;99.90
7307;DHT22;3694;48.732;9.248;2023-04-06T02:53:09;-2.10;99.90
7307;DHT22;3694;48.732;9.248;2023-04-06T02:55:35;-2.20;99.90
7307;DHT22;3694;48.732;9.248;2023-04-06T02:58:00;-2.20;99.90
7307;DHT22;3694;48.732;9.248;2023-04-06T03:00:26;-2.20;99.90
7307;DHT22;3694;48.732;9.248;2023-04-06T03:02:52;-2.20;99.90
7307;DHT22;3694;48.732;9.248;2023-04-06T03:05:17;-2.10;99.90
7307;DHT22;3694;48.732;9.248;2023-04-06T03:07:42;-2.20;99.90
7307;DHT22;3694;48.732;9.248;2023-04-06T03:10:08;-2.30;99.90
7307;DHT22;3694;48.732;9.248;2023-04-06T03:12:34;-2.20;99.90
7307;DHT22;3694;48.732;9.248;2023-04-06T03:15:00;-2.20;99.90
7307;DHT22;3694;48.732;9.248;2023-04-06T03:17:26;-2.20;99.90
7307;DHT22;3694;48.732;9.248;2023-04-06T03:19:51;-2.10;99.90
7307;DHT22;3694;48.732;9.248;2023-04-06T03:22:16;-2.00;99.90
7307;DHT22;3694;48.732;9.248;2023-04-06T03:24:42;-2.10;99.90
7307;DHT22;3694;48.732;9.248;2023-04-06T03:27:08;-2.20;99.90
7307;DHT22;3694;48.732;9.248;2023-04-06T03:29:33;-2.10;99.90
7307;DHT22;3694;48.732;9.248;2023-04-06T03:31:58;-2.20;99.90
7307;DHT22;3694;48.732;9.248;2023-04-06T03:34:24;-2.20;99.90
7307;DHT22;3694;48.732;9.248;2023-04-06T03:36:50;-2.20;99.90
7307;DHT22;3694;48.732;9.248;2023-04-06T03:39:16;-2.30;99.90
7307;DHT22;3694;48.732;9.248;2023-04-06T03:41:41;-2.20;99.90
7307;DHT22;3694;48.732;9.248;2023-04-06T03:44:07;-2.20;99.90
7307;DHT22;3694;48.732;9.248;2023-04-06T03:46:32;-2.30;99.90
7307;DHT22;3694;48.732;9.248;2023-04-06T03:48:58;-2.30;99.90
7307;DHT22;3694;48.732;9.248;2023-04-06T03:51:23;-2.20;99.90
7307;DHT22;3694;48.732;9.248;2023-04-06T03:53:49;-2.20;99.90
7307;DHT22;3694;48.732;9.248;2023-04-06T03:56:14;-2.20;99.90
7307;DHT22;3694;48.732;9.248;2023-04-06T03:58:40;-2.30;99.90
7307;DHT22;3694;48.732;9.248;2023-04-06T04:01:06;-2.20;99.90
7307;DHT22;3694;48.732;9.248;2023-04-06T04:03:31;-2.20;99.90
7307;DHT22;3694;48.732;9.248;2023-04-06T04:05:57;-2.30;99.90
7307;DHT22;3694;48.732;9.248;2023-04-06T04:08:24;-2.40;99.90
7307;DHT22;3694;48.732;9.248;2023-04-06T04:10:49;-2.60;99.90
7307;DHT22;3694;48.732;9.248;2023-04-06T04:13:15;-2.80;99.90
7307;DHT22;3694;48.732;9.248;2023-04-06T04:15:40;-2.90;99.90
7307;DHT22;3694;48.732;9.248;2023-04-06T04:18:06;-3.00;99.90
7307;DHT22;3694;48.732;9.248;2023-04-06T04:20:32;-3.00;99.90
7307;DHT22;3694;48.732;9.248;2023-04-06T04:22:57;-2.80;99.90
7307;DHT22;3694;48.732;9.248;2023-04-06T04:25:23;-2.60;99.90
7307;DHT22;3694;48.732;9.248;2023-04-06T04:27:49;-2.50;99.90
7307;DHT22;3694;48.732;9.248;2023-04-06T04:30:15;-2.50;99.90
7307;DHT22;3694;48.732;9.248;2023-04-06T04:32:40;-2.40;99.90
7307;DHT22;3694;48.732;9.248;2023-04-06T04:35:06;-2.30;99.90
7307;DHT22;3694;48.732;9.248;2023-04-06T04:37:32;-2.30;99.90
7307;DHT22;3694;48.732;9.248;2023-04-06T04:39:59;-2.30;99.90
7307;DHT22;3694;48.732;9.248;2023-04-06T04:42:25;-2.20;99.90
7307;DHT22;3694;48.732;9.248;2023-04-06T04:44:51;-2.20;99.90
7307;DHT22;3694;48.732;9.248;2023-04-06T04:47:17;-2.20;99.90
7307;DHT22;3694;48.732;9.248;2023-04-06T04:49:42;-2.10;99.90
7307;DHT22;3694;48.732;9.248;2023-04-06T04:52:08;-2.20;99.90
7307;DHT22;3694;48.732;9.248;2023-04-06T04:54:33;-2.30;99.90
7307;DHT22;3694;48.732;9.248;2023-04-06T04:56:59;-2.30;99.90
7307;DHT22;3694;48.732;9.248;2023-04-06T04:59:24;-2.30;99.90
7307;DHT22;3694;48.732;9.248;2023-04-06T05:01:50;-2.30;99.90
7307;DHT22;3694;48.732;9.248;2023-04-06T05:04:15;-2.30;99.90
7307;DHT22;3694;48.732;9.248;2023-04-06T05:06:41;-2.30;99.90
7307;DHT22;3694;48.732;9.248;2023-04-06T05:09:06;-2.20;99.90
7307;DHT22;3694;48.732;9.248;2023-04-06T05:11:32;-2.20;99.90
7307;DHT22;3694;48.732;9.248;2023-04-06T05:13:59;-2.10;99.90
7307;DHT22;3694;48.732;9.248;2023-04-06T05:16:24;-2.20;99.90
7307;DHT22;3694;48.732;9.248;2023-04-06T05:18:50;-2.20;99.90
7307;DHT22;3694;48.732;9.248;2023-04-06T05:21:16;-2.10;99.90
7307;DHT22;3694;48.732;9.248;2023-04-06T05:23:41;-2.10;99.90
7307;DHT22;3694;48.732;9.248;2023-04-06T05:26:07;-2.10;99.90
7307;DHT22;3694;48.732;9.248;2023-04-06T05:28:32;-2.00;99.90
7307;DHT22;3694;48.732;9.248;2023-04-06T05:30:58;-1.90;99.90
7307;DHT22;3694;48.732;9.248;2023-04-06T05:33:24;-1.80;99.90
7307;DHT22;3694;48.732;9.248;2023-04-06T05:35:50;-1.70;99.90
7307;DHT22;3694;48.732;9.248;2023-04-06T05:38:15;-1.60;99.90
7307;DHT22;3694;48.732;9.248;2023-04-06T05:40:41;-1.50;99.90
7307;DHT22;3694;48.732;9.248;2023-04-06T05:43:07;-1.50;99.90
7307;DHT22;3694;48.732;9.248;2023-04-06T05:45:33;-1.40;99.90
7307;DHT22;3694;48.732;9.248;2023-04-06T05:47:58;-1.30;99.90
7307;DHT22;3694;48.732;9.248;2023-04-06T05:50:24;-1.20;99.90
7307;DHT22;3694;48.732;9.248;2023-04-06T05:52:50;-1.00;99.90
7307;DHT22;3694;48.732;9.248;2023-04-06T05:55:15;-0.80;99.90
7307;DHT22;3694;48.732;9.248;2023-04-06T05:57:41;-0.70;99.90
7307;DHT22;3694;48.732;9.248;2023-04-06T06:00:07;-0.60;99.90
7307;DHT22;3694;48.732;9.248;2023-04-06T06:02:35;-0.50;99.90
7307;DHT22;3694;48.732;9.248;2023-04-06T06:05:00;-0.40;99.90
7307;DHT22;3694;48.732;9.248;2023-04-06T06:07:26;-0.20;99.90
7307;DHT22;3694;48.732;9.248;2023-04-06T06:09:52;-0.10;99.90
7307;DHT22;3694;48.732;9.248;2023-04-06T06:12:17;0.20;99.90
7307;DHT22;3694;48.732;9.248;2023-04-06T06:14:43;0.60;99.60
7307;DHT22;3694;48.732;9.248;2023-04-06T06:17:08;1.40;98.00
7307;DHT22;3694;48.732;9.248;2023-04-06T06:19:34;2.20;96.00
7307;DHT22;3694;48.732;9.248;2023-04-06T06:22:00;3.20;93.90
7307;DHT22;3694;48.732;9.248;2023-04-06T06:24:28;4.10;91.90
7307;DHT22;3694;48.732;9.248;2023-04-06T06:26:53;4.90;89.00
7307;DHT22;3694;48.732;9.248;2023-04-06T06:29:19;5.50;84.50
7307;DHT22;3694;48.732;9.248;2023-04-06T06:31:44;5.80;81.50
7307;DHT22;3694;48.732;9.248;2023-04-06T06:34:10;5.70;79.60
7307;DHT22;3694;48.732;9.248;2023-04-06T06:36:36;5.90;77.80
7307;DHT22;3694;48.732;9.248;2023-04-06T06:39:01;5.60;76.80
7307;DHT22;3694;48.732;9.248;2023-04-06T06:41:28;5.60;77.10
7307;DHT22;3694;48.732;9.248;2023-04-06T06:43:54;5.00;77.30
7307;DHT22;3694;48.732;9.248;2023-04-06T06:46:20;4.70;78.50
7307;DHT22;3694;48.732;9.248;2023-04-06T06:48:46;4.20;79.20
7307;DHT22;3694;48.732;9.248;2023-04-06T06:51:11;4.10;80.00
7307;DHT22;3694;48.732;9.248;2023-04-06T06:53:37;4.50;80.40
7307;DHT22;3694;48.732;9.248;2023-04-06T06:56:03;5.00;80.60
7307;DHT22;3694;48.732;9.248;2023-04-06T06:58:28;5.60;79.20
7307;DHT22;3694;48.732;9.248;2023-04-06T07:00:57;6.40;77.60
7307;DHT22;3694;48.732;9.248;2023-04-06T07:03:23;7.20;77.10
7307;DHT22;3694;48.732;9.248;2023-04-06T07:05:49;7.60;74.10
7307;DHT22;3694;48.732;9.248;2023-04-06T07:08:22;8.20;74.00
7307;DHT22;3694;48.732;9.248;2023-04-06T07:10:51;8.70;71.90
7307;DHT22;3694;48.732;9.248;2023-04-06T07:13:23;8.90;71.80
7307;DHT22;3694;48.732;9.248;2023-04-06T07:15:49;9.10;69.50
7307;DHT22;3694;48.732;9.248;2023-04-06T07:18:16;9.20;71.30
7307;DHT22;3694;48.732;9.248;2023-04-06T07:20:41;9.40;70.30
7307;DHT22;3694;48.732;9.248;2023-04-06T07:23:07;9.80;69.80
7307;DHT22;3694;48.732;9.248;2023-04-06T07:25:32;9.80;68.30
7307;DHT22;3694;48.732;9.248;2023-04-06T07:27:58;9.90;68.00
7307;DHT22;3694;48.732;9.248;2023-04-06T07:30:24;10.10;66.90
7307;DHT22;3694;48.732;9.248;2023-04-06T07:32:51;10.20;65.90
7307;DHT22;3694;48.732;9.248;2023-04-06T07:35:17;10.50;66.60
7307;DHT22;3694;48.732;9.248;2023-04-06T07:37:43;10.30;65.00
7307;DHT22;3694;48.732;9.248;2023-04-06T07:40:08;10.30;65.50
7307;DHT22;3694;48.732;9.248;2023-04-06T07:42:34;10.60;65.60
7307;DHT22;3694;48.732;9.248;2023-04-06T07:45:00;10.60;63.60
7307;DHT22;3694;48.732;9.248;2023-04-06T07:47:25;10.50;64.60
7307;DHT22;3694;48.732;9.248;2023-04-06T07:49:51;10.60;64.30
7307;DHT22;3694;48.732;9.248;2023-04-06T07:52:16;10.70;64.30
7307;DHT22;3694;48.732;9.248;2023-04-06T07:54:42;10.90;62.90
7307;DHT22;3694;48.732;9.248;2023-04-06T07:57:07;10.80;61.60
7307;DHT22;3694;48.732;9.248;2023-04-06T07:59:33;11.30;62.80
7307;DHT22;3694;48.732;9.248;2023-04-06T08:01:58;11.30;62.00
7307;DHT22;3694;48.732;9.248;2023-04-06T08:04:24;11.20;63.10
7307;DHT22;3694;48.732;9.248;2023-04-06T08:06:50;11.70;64.30
7307;DHT22;3694;48.732;9.248;2023-04-06T08:09:15;11.90;61.70
7307;DHT22;3694;48.732;9.248;2023-04-06T08:11:41;12.20;61.80
7307;DHT22;3694;48.732;9.248;2023-04-06T08:14:06;12.30;62.50
7307;DHT22;3694;48.732;9.248;2023-04-06T08:16:32;12.20;60.50
7307;DHT22;3694;48.732;9.248;2023-04-06T08:18:57;12.10;60.30
7307;DHT22;3694;48.732;9.248;2023-04-06T08:21:23;12.20;60.40
7307;DHT22;3694;48.732;9.248;2023-04-06T08:23:48;12.40;60.90
7307;DHT22;3694;48.732;9.248;2023-04-06T08:26:14;12.30;60.90
7307;DHT22;3694;48.732;9.248;2023-04-06T08:28:39;12.50;60.70
7307;DHT22;3694;48.732;9.248;2023-04-06T08:31:05;12.40;58.50
7307;DHT22;3694;48.732;9.248;2023-04-06T08:33:31;12.20;59.60
7307;DHT22;3694;48.732;9.248;2023-04-06T08:35:57;12.30;62.60
7307;DHT22;3694;48.732;9.248;2023-04-06T08:38:22;12.50;61.40
7307;DHT22;3694;48.732;9.248;2023-04-06T08:40:48;12.70;61.50
7307;DHT22;3694;48.732;9.248;2023-04-06T08:43:17;12.90;58.20
7307;DHT22;3694;48.732;9.248;2023-04-06T08:45:44;13.00;59.00
7307;DHT22;3694;48.732;9.248;2023-04-06T08:48:11;13.50;57.90
7307;DHT22;3694;48.732;9.248;2023-04-06T08:50:38;13.40;55.60
7307;DHT22;3694;48.732;9.248;2023-04-06T08:53:05;13.30;58.30
7307;DHT22;3694;48.732;9.248;2023-04-06T08:55:31;13.30;55.50
7307;DHT22;3694;48.732;9.248;2023-04-06T08:57:59;13.30;55.70
7307;DHT22;3694;48.732;9.248;2023-04-06T09:00:25;13.30;54.90
7307;DHT22;3694;48.732;9.248;2023-04-06T09:02:53;13.60;54.40
7307;DHT22;3694;48.732;9.248;2023-04-06T09:05:20;13.90;52.30
7307;DHT22;3694;48.732;9.248;2023-04-06T09:07:46;14.10;52.20
7307;DHT22;3694;48.732;9.248;2023-04-06T09:10:12;14.20;54.60
7307;DHT22;3694;48.732;9.248;2023-04-06T09:12:38;13.90;52.70
7307;DHT22;3694;48.732;9.248;2023-04-06T09:15:04;13.40;53.10
7307;DHT22;3694;48.732;9.248;2023-04-06T09:17:31;13.50;52.30
7307;DHT22;3694;48.732;9.248;2023-04-06T09:20:00;13.60;52.00
7307;DHT22;3694;48.732;9.248;2023-04-06T09:22:25;13.50;49.60
7307;DHT22;3694;48.732;9.248;2023-04-06T09:25:00;13.50;50.90
7307;DHT22;3694;48.732;9.248;2023-04-06T09:27:33;13.50;51.10
7307;DHT22;3694;48.732;9.248;2023-04-06T09:30:08;13.20;49.60
7307;DHT22;3694;48.732;9.248;2023-04-06T09:32:45;13.30;51.40
7307;DHT22;3694;48.732;9.248;2023-04-06T09:35:11;13.70;51.40
7307;DHT22;3694;48.732;9.248;2023-04-06T09:37:37;14.00;52.20
7307;DHT22;3694;48.732;9.248;2023-04-06T09:40:06;14.20;50.50
7307;DHT22;3694;48.732;9.248;2023-04-06T09:42:32;14.20;49.90
7307;DHT22;3694;48.732;9.248;2023-04-06T09:44:58;14.00;49.80
7307;DHT22;3694;48.732;9.248;2023-04-06T09:47:24;14.00;50.80
7307;DHT22;3694;48.732;9.248;2023-04-06T09:49:55;13.90;47.80
7307;DHT22;3694;48.732;9.248;2023-04-06T09:52:22;13.70;50.00
7307;DHT22;3694;48.732;9.248;2023-04-06T09:54:50;13.70;49.60
7307;DHT22;3694;48.732;9.248;2023-04-06T09:59:44;13.70;45.70
7307;DHT22;3694;48.732;9.248;2023-04-06T10:02:25;13.40;45.60
7307;DHT22;3694;48.732;9.248;2023-04-06T10:05:15;13.60;49.30
7307;DHT22;3694;48.732;9.248;2023-04-06T10:07:42;13.40;47.20
7307;DHT22;3694;48.732;9.248;2023-04-06T10:10:08;13.50;46.50
7307;DHT22;3694;48.732;9.248;2023-04-06T10:12:39;13.60;49.40
7307;DHT22;3694;48.732;9.248;2023-04-06T10:15:05;13.50;48.70
7307;DHT22;3694;48.732;9.248;2023-04-06T10:17:31;13.40;44.60
7307;DHT22;3694;48.732;9.248;2023-04-06T10:20:06;13.20;45.90
7307;DHT22;3694;48.732;9.248;2023-04-06T10:22:55;13.10;44.60
7307;DHT22;3694;48.732;9.248;2023-04-06T10:28:08;13.30;42.90
7307;DHT22;3694;48.732;9.248;2023-04-06T10:30:36;13.50;44.80
7307;DHT22;3694;48.732;9.248;2023-04-06T10:33:14;14.00;44.40
7307;DHT22;3694;48.732;9.248;2023-04-06T10:35:40;13.80;42.80
7307;DHT22;3694;48.732;9.248;2023-04-06T10:38:06;13.40;42.50
7307;DHT22;3694;48.732;9.248;2023-04-06T10:40:36;13.60;45.00
7307;DHT22;3694;48.732;9.248;2023-04-06T10:43:13;13.40;41.70
7307;DHT22;3694;48.732;9.248;2023-04-06T10:45:40;13.80;42.70
7307;DHT22;3694;48.732;9.248;2023-04-06T10:48:16;14.20;44.30
7307;DHT22;3694;48.732;9.248;2023-04-06T10:50:48;14.20;42.90
7307;DHT22;3694;48.732;9.248;2023-04-06T10:53:21;13.80;40.10
7307;DHT22;3694;48.732;9.248;2023-04-06T10:55:48;13.60;41.70
7307;DHT22;3694;48.732;9.248;2023-04-06T10:58:14;13.70;41.60
7307;DHT22;3694;48.732;9.248;2023-04-06T11:00:47;14.00;41.60
7307;DHT22;3694;48.732;9.248;2023-04-06T11:03:13;14.20;41.80
7307;DHT22;3694;48.732;9.248;2023-04-06T11:05:43;14.00;41.20
7307;DHT22;3694;48.732;9.248;2023-04-06T11:08:09;13.80;38.90
7307;DHT22;3694;48.732;9.248;2023-04-06T11:10:35;14.00;45.20
7307;DHT22;3694;48.732;9.248;2023-04-06T11:13:00;13.90;38.60
7307;DHT22;3694;48.732;9.248;2023-04-06T11:15:26;14.10;39.00
7307;DHT22;3694;48.732;9.248;2023-04-06T11:17:52;14.10;41.90
7307;DHT22;3694;48.732;9.248;2023-04-06T11:20:17;14.20;39.50
7307;DHT22;3694;48.732;9.248;2023-04-06T11:22:49;14.20;40.80
7307;DHT22;3694;48.732;9.248;2023-04-06T11:25:15;14.20;38.80
7307;DHT22;3694;48.732;9.248;2023-04-06T11:27:42;14.60;38.50
7307;DHT22;3694;48.732;9.248;2023-04-06T11:30:08;15.00;40.40
7307;DHT22;3694;48.732;9.248;2023-04-06T11:32:41;14.80;37.20
7307;DHT22;3694;48.732;9.248;2023-04-06T11:35:11;15.00;37.30
7307;DHT22;3694;48.732;9.248;2023-04-06T11:37:37;14.80;35.90
7307;DHT22;3694;48.732;9.248;2023-04-06T11:40:03;14.70;37.20
7307;DHT22;3694;48.732;9.248;2023-04-06T11:42:34;14.80;37.70
7307;DHT22;3694;48.732;9.248;2023-04-06T11:45:00;14.20;34.90
7307;DHT22;3694;48.732;9.248;2023-04-06T11:47:36;13.80;36.70
7307;DHT22;3694;48.732;9.248;2023-04-06T11:50:07;13.80;34.50
7307;DHT22;3694;48.732;9.248;2023-04-06T11:52:33;14.20;40.00
7307;DHT22;3694;48.732;9.248;2023-04-06T11:55:10;14.30;37.20
7307;DHT22;3694;48.732;9.248;2023-04-06T11:57:36;14.30;38.50
7307;DHT22;3694;48.732;9.248;2023-04-06T12:00:02;13.80;38.00
7307;DHT22;3694;48.732;9.248;2023-04-06T12:02:27;13.90;36.80
7307;DHT22;3694;48.732;9.248;2023-04-06T12:04:53;14.00;35.70
7307;DHT22;3694;48.732;9.248;2023-04-06T12:07:18;14.00;35.70
7307;DHT22;3694;48.732;9.248;2023-04-06T12:09:44;13.90;39.30
7307;DHT22;3694;48.732;9.248;2023-04-06T12:12:10;13.80;37.70
7307;DHT22;3694;48.732;9.248;2023-04-06T12:14:35;14.10;38.20
7307;DHT22;3694;48.732;9.248;2023-04-06T12:17:01;14.60;37.70
7307;DHT22;3694;48.732;9.248;2023-04-06T12:19:26;14.50;37.70
7307;DHT22;3694;48.732;9.248;2023-04-06T12:21:53;14.50;42.40
7307;DHT22;3694;48.732;9.248;2023-04-06T12:24:19;14.40;36.70
7307;DHT22;3694;48.732;9.248;2023-04-06T12:26:45;14.30;35.60
7307;DHT22;3694;48.732;9.248;2023-04-06T12:29:10;14.50;36.90
7307;DHT22;3694;48.732;9.248;2023-04-06T12:31:38;14.90;36.30
7307;DHT22;3694;48.732;9.248;2023-04-06T12:34:05;15.40;39.40
7307;DHT22;3694;48.732;9.248;2023-04-06T12:36:31;15.60;37.50
7307;DHT22;3694;48.732;9.248;2023-04-06T12:38:57;15.60;36.60
7307;DHT22;3694;48.732;9.248;2023-04-06T12:41:22;15.70;36.00
7307;DHT22;3694;48.732;9.248;2023-04-06T12:43:48;15.60;37.50
7307;DHT22;3694;48.732;9.248;2023-04-06T12:46:15;15.60;39.60
7307;DHT22;3694;48.732;9.248;2023-04-06T12:48:41;15.50;37.80
7307;DHT22;3694;48.732;9.248;2023-04-06T12:51:07;15.70;36.60
7307;DHT22;3694;48.732;9.248;2023-04-06T12:53:33;16.00;37.70
7307;DHT22;3694;48.732;9.248;2023-04-06T12:56:00;15.80;36.70
7307;DHT22;3694;48.732;9.248;2023-04-06T12:58:26;15.80;35.40
7307;DHT22;3694;48.732;9.248;2023-04-06T13:00:52;15.50;35.40
7307;DHT22;3694;48.732;9.248;2023-04-06T13:03:18;15.00;33.80
7307;DHT22;3694;48.732;9.248;2023-04-06T13:05:45;15.20;34.20
7307;DHT22;3694;48.732;9.248;2023-04-06T13:08:11;15.20;36.90
7307;DHT22;3694;48.732;9.248;2023-04-06T13:10:37;15.30;36.60
7307;DHT22;3694;48.732;9.248;2023-04-06T13:13:02;15.20;35.50
7307;DHT22;3694;48.732;9.248;2023-04-06T13:15:28;15.30;35.90
7307;DHT22;3694;48.732;9.248;2023-04-06T13:17:54;15.50;38.00
7307;DHT22;3694;48.732;9.248;2023-04-06T13:20:19;15.40;36.10
7307;DHT22;3694;48.732;9.248;2023-04-06T13:22:45;15.40;35.00
7307;DHT22;3694;48.732;9.248;2023-04-06T13:25:10;15.00;33.80
7307;DHT22;3694;48.732;9.248;2023-04-06T13:27:36;14.80;34.20
7307;DHT22;3694;48.732;9.248;2023-04-06T13:30:03;14.80;35.00
7307;DHT22;3694;48.732;9.248;2023-04-06T13:32:28;14.60;35.30
7307;DHT22;3694;48.732;9.248;2023-04-06T13:34:55;14.60;35.10
7307;DHT22;3694;48.732;9.248;2023-04-06T13:37:21;14.70;35.70
7307;DHT22;3694;48.732;9.248;2023-04-06T13:39:46;14.90;34.80
7307;DHT22;3694;48.732;9.248;2023-04-06T13:42:12;15.20;35.20
7307;DHT22;3694;48.732;9.248;2023-04-06T13:44:37;15.60;35.90
7307;DHT22;3694;48.732;9.248;2023-04-06T13:47:03;15.60;34.40
7307;DHT22;3694;48.732;9.248;2023-04-06T13:49:28;15.70;33.90
7307;DHT22;3694;48.732;9.248;2023-04-06T13:51:54;15.80;35.80
7307;DHT22;3694;48.732;9.248;2023-04-06T13:54:19;15.80;33.10
7307;DHT22;3694;48.732;9.248;2023-04-06T13:56:45;15.70;35.40
7307;DHT22;3694;48.732;9.248;2023-04-06T13:59:10;15.50;33.50
7307;DHT22;3694;48.732;9.248;2023-04-06T14:01:37;15.30;37.90
7307;DHT22;3694;48.732;9.248;2023-04-06T14:04:02;15.20;36.40
7307;DHT22;3694;48.732;9.248;2023-04-06T14:06:28;15.20;35.80
7307;DHT22;3694;48.732;9.248;2023-04-06T14:08:53;14.90;33.40
7307;DHT22;3694;48.732;9.248;2023-04-06T14:11:19;14.80;35.00
7307;DHT22;3694;48.732;9.248;2023-04-06T14:13:44;14.70;32.70
7307;DHT22;3694;48.732;9.248;2023-04-06T14:16:10;14.60;35.80
7307;DHT22;3694;48.732;9.248;2023-04-06T14:18:36;14.70;36.20
7307;DHT22;3694;48.732;9.248;2023-04-06T14:21:02;14.40;33.60
7307;DHT22;3694;48.732;9.248;2023-04-06T14:23:28;14.50;34.50
7307;DHT22;3694;48.732;9.248;2023-04-06T14:26:04;14.50;33.90
7307;DHT22;3694;48.732;9.248;2023-04-06T14:28:31;14.60;33.60
7307;DHT22;3694;48.732;9.248;2023-04-06T14:30:59;14.50;33.70
7307;DHT22;3694;48.732;9.248;2023-04-06T14:33:25;14.70;35.90
7307;DHT22;3694;48.732;9.248;2023-04-06T14:35:51;14.60;33.60
7307;DHT22;3694;48.732;9.248;2023-04-06T14:38:16;14.80;35.10
7307;DHT22;3694;48.732;9.248;2023-04-06T14:40:42;14.90;34.30
7307;DHT22;3694;48.732;9.248;2023-04-06T14:43:07;14.90;32.80
7307;DHT22;3694;48.732;9.248;2023-04-06T14:45:34;14.90;34.10
7307;DHT22;3694;48.732;9.248;2023-04-06T14:48:04;14.70;33.80
7307;DHT22;3694;48.732;9.248;2023-04-06T14:50:32;14.70;32.50
7307;DHT22;3694;48.732;9.248;2023-04-06T14:52:57;14.80;34.80
7307;DHT22;3694;48.732;9.248;2023-04-06T14:55:23;14.90;33.90
7307;DHT22;3694;48.732;9.248;2023-04-06T14:57:48;14.90;34.00
7307;DHT22;3694;48.732;9.248;2023-04-06T15:00:14;14.90;32.90
7307;DHT22;3694;48.732;9.248;2023-04-06T15:02:40;14.60;33.40
7307;DHT22;3694;48.732;9.248;2023-04-06T15:05:08;14.70;36.50
7307;DHT22;3694;48.732;9.248;2023-04-06T15:07:34;14.60;35.30
7307;DHT22;3694;48.732;9.248;2023-04-06T15:09:59;14.40;35.10
7307;DHT22;3694;48.732;9.248;2023-04-06T15:12:25;14.20;34.50
7307;DHT22;3694;48.732;9.248;2023-04-06T15:14:51;14.00;35.30
7307;DHT22;3694;48.732;9.248;2023-04-06T15:17:16;14.00;35.00
7307;DHT22;3694;48.732;9.248;2023-04-06T15:19:41;14.00;34.40
7307;DHT22;3694;48.732;9.248;2023-04-06T15:22:07;13.90;36.30
7307;DHT22;3694;48.732;9.248;2023-04-06T15:24:33;13.90;35.40
7307;DHT22;3694;48.732;9.248;2023-04-06T15:26:58;13.80;35.40
7307;DHT22;3694;48.732;9.248;2023-04-06T15:29:23;13.60;34.10
7307;DHT22;3694;48.732;9.248;2023-04-06T15:31:50;13.50;34.20
7307;DHT22;3694;48.732;9.248;2023-04-06T15:34:16;13.50;35.30
7307;DHT22;3694;48.732;9.248;2023-04-06T15:36:41;13.40;34.80
7307;DHT22;3694;48.732;9.248;2023-04-06T15:39:09;13.20;34.50
7307;DHT22;3694;48.732;9.248;2023-04-06T15:41:34;13.30;34.60
7307;DHT22;3694;48.732;9.248;2023-04-06T15:44:00;13.40;35.50
7307;DHT22;3694;48.732;9.248;2023-04-06T15:46:26;13.40;34.10
7307;DHT22;3694;48.732;9.248;2023-04-06T15:48:52;13.40;34.90
7307;DHT22;3694;48.732;9.248;2023-04-06T15:51:17;13.40;35.30
7307;DHT22;3694;48.732;9.248;2023-04-06T15:53:43;13.40;36.60
7307;DHT22;3694;48.732;9.248;2023-04-06T15:56:09;13.40;37.00
7307;DHT22;3694;48.732;9.248;2023-04-06T15:58:35;13.40;34.80
7307;DHT22;3694;48.732;9.248;2023-04-06T16:01:10;13.40;35.70